Главная страница
METAR-TAF:

METAR-TAF

Аэропорты :

Ургенч, Узбекистан

широта: 41-35N, долгота: 060-38-42E, высота над уровнем моря: 98 м

Текущие метеонаблюдения

Эта сводка был подготовлена 27 минут назад, в 06:30 UTC
Ветер 18 Узел от северный
Температура 27°C
Влажность 26%
Давление 1017 hPa
Видимость 10 км и более
Нет облачности ниже 1500 м, и нет кучево-дождевой облачности

METAR: UTNU 270630Z 01018KT CAVOK 27/06 Q1017 R31/CLRD70 NOSIG

Время: 11:57 (06:57 UTC)

Прогноз

Эта сводка был подготовлена 1 час и 57 минут назад, в 05:00 UTC
Прогноз действительный с 27-го 06 UTC до 28-го 06 UTC
Ветер 12 Узел от северо-восточный с порывами до 22 Узел
Видимость: 8000 м
временами
С 27-го 06 UTC до 27-го 12 UTC
Ветер 10 Узел от северно-северо-западный с порывами до 20 Узел

TAF: UTNU 270500Z 2706/2806 04012G22KT 8000 NSC TEMPO 2706/2712 34010G20KT

Метеонаблюдения и прогнозы для более 4000 аэропортов (сводки METAR и TAF).

Имеющиеся станции представлены на карте желтыми и красными точками.

Чтобы увидеть название станции, наведите на нее мышь.

Затем щелкните, чтобы увидеть метеонаблюдения и метеопрогнозы.

Управление картой: чтобы увеличить масштаб, щелкните зеленые кнопки с черным крестиком; чтобы уменьшить масштаб, щелкните зеленую кнопку с тире; для просмотра соседних карт щелкайте зеленые стрелки.


METAR-TAF: